createdAt,value
2018-04-11T00:04:37.925Z,13.70
2018-04-11T00:09:41.577Z,13.60
2018-04-11T00:14:44.293Z,13.60
2018-04-11T00:19:46.968Z,13.50
2018-04-11T00:24:49.817Z,13.50
2018-04-11T00:29:53.531Z,13.40
2018-04-11T00:34:56.499Z,13.30
2018-04-11T00:40:00.322Z,13.30
2018-04-11T00:45:03.538Z,13.30
2018-04-11T00:50:06.324Z,13.20
2018-04-11T00:55:09.815Z,13.20
2018-04-11T01:00:12.919Z,13.20
2018-04-11T01:05:16.271Z,13.10
2018-04-11T01:10:19.207Z,13.10
2018-04-11T01:15:22.061Z,13.10
2018-04-11T01:20:25.118Z,13.10
2018-04-11T01:25:27.779Z,13.00
2018-04-11T01:30:30.535Z,13.00
2018-04-11T01:35:34.515Z,12.90
2018-04-11T01:40:37.337Z,12.90
2018-04-11T01:45:40.051Z,12.80
2018-04-11T01:50:49.682Z,12.80
2018-04-11T01:55:52.572Z,12.70
2018-04-11T02:00:55.882Z,12.70
2018-04-11T02:05:58.655Z,12.60
2018-04-11T02:11:01.789Z,12.60
2018-04-11T02:16:05.580Z,12.50
2018-04-11T02:21:08.402Z,12.50
2018-04-11T02:26:11.087Z,12.50
2018-04-11T02:31:14.563Z,12.30
2018-04-11T02:36:17.477Z,12.30
2018-04-11T02:41:20.393Z,12.30
2018-04-11T02:46:23.339Z,12.30
2018-04-11T02:51:26.957Z,12.20
2018-04-11T02:56:30.000Z,12.20
2018-04-11T03:01:33.604Z,12.20
2018-04-11T03:06:36.413Z,12.20
2018-04-11T03:11:39.211Z,12.10
2018-04-11T03:16:41.881Z,12.10
2018-04-11T03:21:44.650Z,12.10
2018-04-11T03:26:47.461Z,12.10
2018-04-11T03:31:50.412Z,12.00
2018-04-11T03:36:53.355Z,12.00
2018-04-11T03:41:56.281Z,12.00
2018-04-11T03:46:59.796Z,12.00
2018-04-11T03:52:02.665Z,11.90
2018-04-11T03:57:05.361Z,11.90
2018-04-11T04:02:08.138Z,11.90
2018-04-11T04:07:11.064Z,11.90
2018-04-11T04:12:13.896Z,11.80
2018-04-11T04:17:28.515Z,11.80
2018-04-11T04:22:31.457Z,11.80
2018-04-11T04:27:35.382Z,11.70
2018-04-11T04:32:38.177Z,11.60
2018-04-11T04:37:42.045Z,11.50
2018-04-11T04:42:45.160Z,11.50
2018-04-11T04:47:48.141Z,11.50
2018-04-11T04:52:50.911Z,11.40
2018-04-11T04:57:53.626Z,11.30
2018-04-11T05:02:56.627Z,11.30
2018-04-11T05:07:59.453Z,11.20
2018-04-11T05:13:02.811Z,11.20
2018-04-11T05:18:05.531Z,11.20
2018-04-11T05:23:08.298Z,11.20
2018-04-11T05:28:11.439Z,11.20
2018-04-11T05:33:14.173Z,11.30
2018-04-11T05:38:17.911Z,11.60
2018-04-11T05:43:20.788Z,11.60
2018-04-11T05:53:33.267Z,12.10
2018-04-11T05:58:37.000Z,12.30
2018-04-11T06:03:39.886Z,12.50
2018-04-11T06:08:42.801Z,12.80
2018-04-11T06:13:45.615Z,12.90
2018-04-11T06:18:48.432Z,13.00
2018-04-11T06:23:51.884Z,12.90
2018-04-11T06:28:55.670Z,12.80
2018-04-11T06:33:58.383Z,12.80
2018-04-11T06:39:01.100Z,12.90
2018-04-11T06:44:03.773Z,13.10
2018-04-11T06:49:06.420Z,13.30
2018-04-11T06:54:09.193Z,13.40
2018-04-11T06:59:12.266Z,13.50
2018-04-11T07:04:15.751Z,13.70
2018-04-11T07:09:18.667Z,14.00
2018-04-11T07:14:21.784Z,14.40
2018-04-11T07:19:24.819Z,14.80
2018-04-11T07:24:28.608Z,15.30
2018-04-11T07:29:31.419Z,15.70
2018-04-11T07:34:34.378Z,16.20
2018-04-11T07:39:37.390Z,16.60
2018-04-11T07:44:40.400Z,17.00
2018-04-11T07:49:43.357Z,17.40
2018-04-11T07:54:47.667Z,17.80
2018-04-11T07:59:50.753Z,18.20
2018-04-11T08:04:53.783Z,18.50
2018-04-11T08:09:56.756Z,18.80
2018-04-11T08:14:59.484Z,19.10
2018-04-11T08:20:02.930Z,19.40
2018-04-11T08:25:05.791Z,19.60
2018-04-11T08:30:09.215Z,19.80
2018-04-11T08:35:11.860Z,20.10
2018-04-11T08:40:14.762Z,20.20
2018-04-11T08:45:18.056Z,20.40
2018-04-11T08:50:21.050Z,20.60
2018-04-11T08:55:23.867Z,20.80
2018-04-11T09:00:26.530Z,21.00
2018-04-11T09:05:29.457Z,21.30
2018-04-11T09:10:32.469Z,21.60
2018-04-11T09:15:38.233Z,21.70
2018-04-11T09:20:42.285Z,21.80
2018-04-11T09:25:45.179Z,22.00
2018-04-11T09:30:48.023Z,22.30
2018-04-11T09:35:51.841Z,22.50
2018-04-11T09:40:54.923Z,22.70
2018-04-11T09:45:57.899Z,22.70
2018-04-11T09:51:02.978Z,22.60
2018-04-11T09:56:06.093Z,22.40
2018-04-11T10:01:09.022Z,22.20
2018-04-11T10:06:12.081Z,22.10
2018-04-11T10:11:15.261Z,22.10
2018-04-11T10:16:18.185Z,22.20
2018-04-11T10:21:22.516Z,22.30
2018-04-11T10:26:25.756Z,22.20
2018-04-11T10:31:28.624Z,22.40
2018-04-11T10:36:32.924Z,22.70
2018-04-11T10:41:35.796Z,22.70
2018-04-11T10:46:40.015Z,22.90
2018-04-11T10:51:43.075Z,23.20
2018-04-11T10:56:46.826Z,23.40
2018-04-11T11:01:51.148Z,23.70
2018-04-11T11:06:55.546Z,23.90
2018-04-11T11:11:58.501Z,24.10
2018-04-11T11:17:01.382Z,24.30
2018-04-11T11:22:06.214Z,24.30
2018-04-11T11:27:09.219Z,24.00
2018-04-11T11:32:13.537Z,24.00
2018-04-11T11:37:17.785Z,24.00
2018-04-11T11:42:21.477Z,24.20
2018-04-11T11:47:24.446Z,24.30
2018-04-11T11:52:27.402Z,24.50
2018-04-11T11:57:30.489Z,24.70
2018-04-11T12:02:33.488Z,24.80
2018-04-11T12:07:36.547Z,25.00
2018-04-11T12:12:40.028Z,25.00
2018-04-11T12:17:44.435Z,25.10
2018-04-11T12:22:48.504Z,25.20
2018-04-11T12:27:51.502Z,25.20
2018-04-11T12:32:54.474Z,25.20
2018-04-11T12:37:57.370Z,25.10
2018-04-11T12:43:01.896Z,25.10
2018-04-11T12:48:05.570Z,25.10
2018-04-11T12:53:09.534Z,25.20
2018-04-11T12:58:12.743Z,25.30
2018-04-11T13:03:17.013Z,25.30
2018-04-11T13:08:19.967Z,25.30
2018-04-11T13:13:23.747Z,25.30
2018-04-11T13:18:29.774Z,25.20
2018-04-11T13:23:32.993Z,25.00
2018-04-11T13:28:35.891Z,24.90
2018-04-11T13:33:38.830Z,24.90
2018-04-11T13:38:41.857Z,24.90
2018-04-11T13:43:45.585Z,24.90
2018-04-11T13:48:48.419Z,24.90
2018-04-11T13:53:51.742Z,24.90
2018-04-11T13:58:54.701Z,24.90
2018-04-11T14:03:59.537Z,25.00
2018-04-11T14:09:02.415Z,25.00
2018-04-11T14:14:05.185Z,25.00
2018-04-11T14:19:08.217Z,25.00
2018-04-11T14:24:11.027Z,24.90
2018-04-11T14:29:13.749Z,24.80
2018-04-11T14:34:17.161Z,24.80
2018-04-11T14:39:20.119Z,24.80
2018-04-11T14:44:22.820Z,24.80
2018-04-11T14:49:25.888Z,24.70
2018-04-11T14:54:38.143Z,24.50
2018-04-11T14:59:41.038Z,24.40
2018-04-11T15:04:44.219Z,24.40
2018-04-11T15:09:47.743Z,24.30
2018-04-11T15:14:50.429Z,24.20
2018-04-11T15:19:53.192Z,24.00
2018-04-11T15:24:55.903Z,24.00
2018-04-11T15:30:00.375Z,23.80
2018-04-11T15:35:03.605Z,23.80
2018-04-11T15:40:07.122Z,23.60
2018-04-11T15:45:10.058Z,23.50
2018-04-11T15:50:12.933Z,23.30
2018-04-11T15:55:15.771Z,23.20
2018-04-11T16:00:18.618Z,23.00
2018-04-11T16:05:21.433Z,22.80
2018-04-11T16:10:25.150Z,22.60
2018-04-11T16:15:28.861Z,22.40
2018-04-11T16:20:32.364Z,22.40
2018-04-11T16:25:35.236Z,22.30
2018-04-11T16:30:38.045Z,22.10
2018-04-11T16:35:41.036Z,22.00
2018-04-11T16:40:48.451Z,21.70
2018-04-11T16:45:52.089Z,21.60
2018-04-11T16:50:56.022Z,21.50
2018-04-11T16:55:58.895Z,21.40
2018-04-11T17:01:01.619Z,21.20
2018-04-11T17:06:04.242Z,21.10
2018-04-11T17:11:07.204Z,20.90
2018-04-11T17:16:11.248Z,20.70
2018-04-11T17:21:26.006Z,20.60
2018-04-11T17:26:43.369Z,20.40
2018-04-11T17:31:47.030Z,20.40
2018-04-11T17:36:49.997Z,20.20
2018-04-11T17:41:52.844Z,20.10
2018-04-11T17:46:58.815Z,19.90
2018-04-11T17:52:03.540Z,19.70
2018-04-11T17:57:06.106Z,19.50
2018-04-11T18:02:09.711Z,19.40
2018-04-11T18:07:13.199Z,19.30
2018-04-11T18:12:16.315Z,19.20
2018-04-11T18:17:19.697Z,19.10
2018-04-11T18:22:24.151Z,18.90
2018-04-11T18:27:27.946Z,18.80
2018-04-11T18:32:31.241Z,18.80
2018-04-11T18:37:34.250Z,18.60
2018-04-11T18:42:37.132Z,18.50
2018-04-11T18:47:39.982Z,18.40
2018-04-11T18:52:42.926Z,18.30
2018-04-11T18:57:47.437Z,18.20
2018-04-11T19:02:50.449Z,18.10
2018-04-11T19:07:54.797Z,17.80
2018-04-11T19:12:58.015Z,17.80
2018-04-11T19:18:01.186Z,17.70
2018-04-11T19:23:06.056Z,17.40
2018-04-11T19:28:09.438Z,17.40
2018-04-11T19:33:12.387Z,17.30
2018-04-11T19:38:17.635Z,17.00
2018-04-11T19:43:22.789Z,17.00
2018-04-11T19:48:25.696Z,16.90
2018-04-11T19:53:28.652Z,16.70
2018-04-11T19:58:32.408Z,16.40
2018-04-11T20:03:35.588Z,16.40
2018-04-11T20:08:38.537Z,16.30
2018-04-11T20:13:41.405Z,16.20
2018-04-11T20:18:44.125Z,16.00
2018-04-11T20:23:47.173Z,15.80
2018-04-11T20:28:50.108Z,15.70
2018-04-11T20:33:53.168Z,15.60
2018-04-11T20:38:57.188Z,15.50
2018-04-11T20:44:00.679Z,15.40
2018-04-11T20:49:04.202Z,15.10
2018-04-11T20:54:08.273Z,15.10
2018-04-11T20:59:11.240Z,15.00
2018-04-11T21:04:14.464Z,14.90
2018-04-11T21:09:17.561Z,14.80
2018-04-11T21:14:21.323Z,14.70
2018-04-11T21:19:25.267Z,14.60
2018-04-11T21:24:28.724Z,14.50
2018-04-11T21:29:32.616Z,14.40
2018-04-11T21:34:36.045Z,14.30
2018-04-11T21:39:39.216Z,14.20
2018-04-11T21:44:43.538Z,14.10
2018-04-11T21:49:49.802Z,14.00
2018-04-11T21:54:52.867Z,13.90
2018-04-11T21:59:56.173Z,13.90
2018-04-11T22:04:59.460Z,13.80
2018-04-11T22:10:02.482Z,13.70
2018-04-11T22:15:05.251Z,13.70
2018-04-11T22:20:07.990Z,13.60
2018-04-11T22:25:10.994Z,13.50
2018-04-11T22:30:14.022Z,13.50
2018-04-11T22:35:17.140Z,13.40
2018-04-11T22:40:20.509Z,13.40
2018-04-11T22:45:23.948Z,13.30
2018-04-11T22:50:26.561Z,13.30
2018-04-11T22:55:29.869Z,13.20
2018-04-11T23:00:33.244Z,13.10
2018-04-11T23:05:36.138Z,13.10
2018-04-11T23:10:39.069Z,13.00
2018-04-11T23:15:41.910Z,13.00
2018-04-11T23:20:44.753Z,12.90
2018-04-11T23:25:48.364Z,12.90
2018-04-11T23:30:54.351Z,12.80
2018-04-11T23:35:57.424Z,12.80
2018-04-11T23:40:59.992Z,12.80
2018-04-11T23:46:02.760Z,12.70
2018-04-11T23:51:06.097Z,12.70
2018-04-11T23:56:10.593Z,12.60
